Time;durP1;ratioP1;P1;durP2;ratioP2;P2;SDS_P1;SDS_P2;PMS_P1;PMS_P2;Temp;Humidity;BMP_temperature;BMP_pressure;BME280_temperature;BME280_humidity;BME280_pressure;Samples;Min_cycle;Max_cycle;Signal;HPM_P1;HPM_P2
2023/10/29 00:00:33;;;;;;;3.90;2.00;;;11.80;1.00;;;;;;5057320;28;20809;-46
2023/10/29 00:02:59;;;;;;;3.10;1.60;;;11.80;1.00;;;;;;5037244;28;20343;-47
2023/10/29 00:05:25;;;;;;;3.00;1.87;;;11.80;3.20;;;;;;5055075;28;20209;-46
2023/10/29 00:07:50;;;;;;;4.70;2.50;;;11.80;43.10;;;;;;5055824;28;20576;-46
2023/10/29 00:10:16;;;;;;;4.30;1.97;;;11.70;92.50;;;;;;5056600;28;20534;-46
2023/10/29 00:12:43;;;;;;;3.67;2.10;;;11.80;99.90;;;;;;5055046;28;20205;-46
2023/10/29 00:15:09;;;;;;;2.30;1.87;;;11.70;99.90;;;;;;5057073;28;20486;-46
2023/10/29 00:17:35;;;;;;;2.87;2.10;;;11.70;99.90;;;;;;5056212;28;20431;-46
2023/10/29 00:20:03;;;;;;;4.10;2.50;;;11.70;99.90;;;;;;5037873;28;20420;-46
2023/10/29 00:22:28;;;;;;;2.63;1.93;;;11.70;99.90;;;;;;5054329;28;20506;-46
2023/10/29 00:24:54;;;;;;;2.70;2.17;;;11.70;99.90;;;;;;5053894;28;20717;-46
2023/10/29 00:27:20;;;;;;;3.27;1.83;;;11.60;99.90;;;;;;5053480;28;20186;-46
2023/10/29 00:29:46;;;;;;;3.30;1.93;;;11.60;1.00;;;;;;5054498;28;20461;-46
2023/10/29 00:32:13;;;;;;;3.20;2.10;;;11.60;1.00;;;;;;5056480;28;20388;-46
2023/10/29 00:34:38;;;;;;;3.03;2.00;;;11.60;1.00;;;;;;5056442;28;20436;-46
2023/10/29 00:37:04;;;;;;;3.30;1.90;;;11.60;1.00;;;;;;5054992;28;20736;-46
2023/10/29 00:39:30;;;;;;;4.17;2.30;;;11.60;1.00;;;;;;5057627;28;20268;-46
2023/10/29 00:41:56;;;;;;;2.50;1.93;;;11.60;1.00;;;;;;5055822;28;20178;-46
2023/10/29 00:44:22;;;;;;;4.23;2.50;;;11.60;1.00;;;;;;5055196;28;21079;-46
2023/10/29 00:46:48;;;;;;;4.23;2.30;;;11.50;1.00;;;;;;5055355;28;20189;-46
2023/10/29 00:49:13;;;;;;;2.97;2.10;;;11.60;1.00;;;;;;5054721;28;20857;-46
2023/10/29 00:51:40;;;;;;;2.87;1.93;;;11.50;1.00;;;;;;5053536;28;20681;-46
2023/10/29 00:54:06;;;;;;;4.70;2.50;;;11.50;1.00;;;;;;5053139;28;20259;-46
2023/10/29 00:56:32;;;;;;;2.10;1.80;;;11.50;1.50;;;;;;5037204;28;20467;-46
2023/10/29 00:58:58;;;;;;;3.17;1.90;;;11.50;17.00;;;;;;5054035;28;20830;-46
2023/10/29 01:01:25;;;;;;;3.13;2.20;;;11.50;29.20;;;;;;5053546;28;20627;-46
2023/10/29 01:03:51;;;;;;;2.90;1.80;;;11.50;42.30;;;;;;5054487;28;20420;-46
2023/10/29 01:06:17;;;;;;;4.80;1.83;;;11.50;45.70;;;;;;5053825;28;20758;-46
2023/10/29 01:08:43;;;;;;;3.50;1.93;;;11.50;60.60;;;;;;5037745;28;20497;-46
2023/10/29 01:11:08;;;;;;;2.30;1.80;;;11.50;97.00;;;;;;5037455;28;20878;-46
2023/10/29 01:13:34;;;;;;;3.47;1.67;;;11.60;99.90;;;;;;5055888;28;20432;-46
2023/10/29 01:16:04;;;;;;;2.10;1.70;;;11.60;99.90;;;;;;5055366;28;20186;-46
2023/10/29 01:18:31;;;;;;;3.57;1.67;;;11.60;99.90;;;;;;5053597;28;20628;-46
2023/10/29 01:20:57;;;;;;;2.00;1.50;;;11.60;99.90;;;;;;5036018;28;20451;-46
2023/10/29 01:23:23;;;;;;;2.90;1.83;;;11.60;99.90;;;;;;5054479;28;20476;-46
2023/10/29 01:25:48;;;;;;;3.20;1.70;;;11.60;99.90;;;;;;5055761;28;20181;-46
2023/10/29 01:28:14;;;;;;;2.33;1.80;;;11.60;99.90;;;;;;5055621;28;20518;-46
2023/10/29 01:30:39;;;;;;;1.90;1.43;;;11.60;99.90;;;;;;5055534;28;20205;-46
2023/10/29 01:33:05;;;;;;;2.70;1.53;;;11.60;99.90;;;;;;5055058;28;20189;-46
2023/10/29 01:35:31;;;;;;;4.23;1.73;;;11.60;99.90;;;;;;5054653;28;20464;-46
2023/10/29 01:37:57;;;;;;;2.20;1.43;;;11.50;99.90;;;;;;5054271;28;20178;-46
2023/10/29 01:40:22;;;;;;;2.10;1.50;;;11.50;99.90;;;;;;5053800;28;20274;-46
2023/10/29 01:42:49;;;;;;;2.57;1.40;;;11.50;99.90;;;;;;5053629;28;20648;-46
2023/10/29 01:45:17;;;;;;;3.60;1.87;;;11.50;99.90;;;;;;5053072;28;20548;-45
2023/10/29 01:47:42;;;;;;;2.70;1.70;;;11.50;99.90;;;;;;5053969;28;20427;-46
2023/10/29 01:50:08;;;;;;;2.33;1.60;;;11.50;99.90;;;;;;5056036;28;20460;-46
2023/10/29 01:52:38;;;;;;;2.13;1.83;;;11.50;99.90;;;;;;5056289;28;20861;-46
2023/10/29 01:55:05;;;;;;;2.90;1.50;;;11.50;38.50;;;;;;5055479;28;20400;-46
2023/10/29 01:57:32;;;;;;;2.70;1.90;;;11.50;1.00;;;;;;5055974;28;20431;-46
2023/10/29 01:59:59;;;;;;;2.30;1.57;;;11.50;1.00;;;;;;5060390;28;20444;-46
2023/10/29 02:02:24;;;;;;;3.60;1.53;;;11.50;1.00;;;;;;5060608;28;20439;-46
2023/10/29 02:04:50;;;;;;;5.20;1.67;;;11.40;1.00;;;;;;5059390;28;20663;-46
2023/10/29 02:07:16;;;;;;;4.67;1.60;;;11.50;99.90;;;;;;5059640;28;20190;-46
2023/10/29 02:09:41;;;;;;;4.17;1.30;;;11.40;99.90;;;;;;5060110;28;20193;-46
2023/10/29 02:12:07;;;;;;;3.47;1.57;;;11.40;99.90;;;;;;5058670;28;20185;-46
2023/10/29 02:14:36;;;;;;;2.87;1.67;;;11.40;48.50;;;;;;5057266;28;20228;-46
2023/10/29 02:17:02;;;;;;;3.70;1.40;;;11.40;7.70;;;;;;5056587;28;20186;-46
2023/10/29 02:19:27;;;;;;;2.57;1.30;;;11.40;1.00;;;;;;5056547;28;20432;-46
2023/10/29 02:21:54;;;;;;;3.20;1.50;;;11.40;1.00;;;;;;5056479;28;20190;-46
2023/10/29 02:24:20;;;;;;;2.07;1.30;;;11.40;1.00;;;;;;5056630;28;20320;-46
2023/10/29 02:26:45;;;;;;;4.83;1.70;;;11.40;1.00;;;;;;5057581;28;20929;-46
2023/10/29 02:29:11;;;;;;;3.20;1.30;;;11.40;99.90;;;;;;5057589;28;20186;-46
2023/10/29 02:31:37;;;;;;;2.77;1.37;;;11.40;99.90;;;;;;5059247;28;20225;-46
2023/10/29 02:34:02;;;;;;;2.57;1.10;;;11.40;99.90;;;;;;5058386;28;20440;-46
2023/10/29 02:36:28;;;;;;;2.10;1.60;;;11.40;99.90;;;;;;5059358;28;20185;-46
2023/10/29 02:38:54;;;;;;;1.70;1.20;;;11.40;99.90;;;;;;5059221;28;20420;-46
2023/10/29 02:41:19;;;;;;;4.20;1.67;;;11.40;99.90;;;;;;5059177;28;20193;-46
2023/10/29 02:43:45;;;;;;;2.10;1.70;;;11.40;99.90;;;;;;5059183;28;20478;-46
2023/10/29 02:46:11;;;;;;;2.20;1.37;;;11.30;1.00;;;;;;5057851;28;20182;-46
2023/10/29 02:48:37;;;;;;;2.60;1.60;;;11.30;1.00;;;;;;5057203;28;20783;-46
2023/10/29 02:51:03;;;;;;;2.80;1.47;;;11.30;1.00;;;;;;5057224;28;20449;-46
2023/10/29 02:53:28;;;;;;;2.93;1.70;;;11.30;1.00;;;;;;5056741;28;20434;-46
2023/10/29 02:55:59;;;;;;;2.00;1.13;;;11.30;1.00;;;;;;5055493;28;20436;-46
2023/10/29 02:58:24;;;;;;;2.03;1.47;;;11.30;99.90;;;;;;5056517;28;20303;-46
2023/10/29 03:00:50;;;;;;;3.37;1.37;;;11.30;99.90;;;;;;5055453;28;20755;-46
2023/10/29 03:03:15;;;;;;;2.13;1.30;;;11.30;99.90;;;;;;5058051;28;20226;-46
2023/10/29 03:05:41;;;;;;;1.60;1.20;;;11.30;99.90;;;;;;5058536;28;20484;-46
2023/10/29 03:08:07;;;;;;;2.63;1.50;;;11.30;99.90;;;;;;5057415;28;20255;-46
2023/10/29 03:10:33;;;;;;;2.23;1.53;;;11.20;99.90;;;;;;5057960;28;20244;-46
2023/10/29 03:12:58;;;;;;;1.80;1.10;;;11.20;99.90;;;;;;5058414;28;20424;-46
2023/10/29 03:15:25;;;;;;;4.20;1.30;;;11.20;99.90;;;;;;5057540;28;20170;-46
2023/10/29 03:17:50;;;;;;;2.30;1.40;;;11.20;99.90;;;;;;5056353;28;20429;-46
2023/10/29 03:20:16;;;;;;;3.23;1.30;;;11.20;99.90;;;;;;5057852;28;20497;-46
2023/10/29 03:22:42;;;;;;;2.17;1.43;;;11.20;99.90;;;;;;5056465;28;20260;-46
2023/10/29 03:25:08;;;;;;;4.10;1.70;;;11.10;99.90;;;;;;5058090;28;20184;-46
2023/10/29 03:27:34;;;;;;;1.70;1.50;;;11.10;99.90;;;;;;5056530;28;20409;-46
2023/10/29 03:30:00;;;;;;;3.07;1.80;;;11.10;99.90;;;;;;5055884;28;20256;-46
2023/10/29 03:32:25;;;;;;;2.83;1.30;;;11.00;1.00;;;;;;5057068;28;20436;-46
2023/10/29 03:34:51;;;;;;;4.57;1.80;;;11.00;1.00;;;;;;5057457;28;20532;-46
2023/10/29 03:37:18;;;;;;;2.30;1.43;;;11.00;1.00;;;;;;5057015;28;20637;-46
2023/10/29 03:39:43;;;;;;;3.43;1.90;;;11.00;1.00;;;;;;5056723;28;20174;-46
2023/10/29 03:42:09;;;;;;;2.20;1.80;;;11.00;14.50;;;;;;5057741;28;20515;-46
2023/10/29 03:44:35;;;;;;;2.97;1.87;;;10.90;99.90;;;;;;5058286;28;20197;-46
2023/10/29 03:47:01;;;;;;;1.77;1.53;;;10.90;99.90;;;;;;5040330;28;20250;-46
2023/10/29 03:49:26;;;;;;;3.50;1.90;;;10.90;99.90;;;;;;5057753;28;20331;-46
2023/10/29 03:51:52;;;;;;;2.47;1.90;;;10.90;99.90;;;;;;5057439;28;20232;-46
2023/10/29 03:54:18;;;;;;;2.07;1.43;;;10.90;99.90;;;;;;5056818;28;20181;-46
2023/10/29 03:56:43;;;;;;;3.50;1.40;;;10.80;1.00;;;;;;5056502;28;20196;-46
2023/10/29 03:59:09;;;;;;;2.60;1.47;;;10.80;1.00;;;;;;5056812;28;20671;-46
2023/10/29 04:01:35;;;;;;;1.67;1.30;;;10.80;99.90;;;;;;5056696;28;20212;-46
2023/10/29 04:04:03;;;;;;;2.07;1.30;;;10.80;99.90;;;;;;5058039;28;20201;-46
2023/10/29 04:06:29;;;;;;;2.30;2.00;;;10.90;99.90;;;;;;5039685;28;20272;-46
2023/10/29 04:08:55;;;;;;;2.40;1.20;;;10.90;1.00;;;;;;5057698;28;20498;-46
2023/10/29 04:11:20;;;;;;;2.93;1.33;;;11.00;1.00;;;;;;5057794;28;20480;-46
2023/10/29 04:13:47;;;;;;;2.50;1.47;;;11.00;99.90;;;;;;5057218;28;20182;-46
2023/10/29 04:16:13;;;;;;;2.93;1.50;;;11.00;91.40;;;;;;5056263;28;20185;-46
2023/10/29 04:18:39;;;;;;;2.10;1.10;;;11.10;1.00;;;;;;5055301;28;20409;-45
2023/10/29 04:21:08;;;;;;;2.60;1.20;;;11.10;1.00;;;;;;5053972;28;20584;-46
2023/10/29 04:23:34;;;;;;;2.23;1.40;;;11.20;99.90;;;;;;5054761;28;20697;-46
2023/10/29 04:26:00;;;;;;;2.50;1.00;;;11.30;99.90;;;;;;5053991;28;20683;-46
2023/10/29 04:28:25;;;;;;;3.00;1.90;;;11.30;99.90;;;;;;5053883;28;20727;-46
2023/10/29 04:30:53;;;;;;;2.20;1.40;;;11.40;91.60;;;;;;5054902;28;20209;-46
2023/10/29 04:33:19;;;;;;;2.57;1.30;;;11.40;56.50;;;;;;5055645;28;20186;-46
2023/10/29 04:35:45;;;;;;;3.87;1.60;;;11.40;49.10;;;;;;5056619;28;20482;-46
2023/10/29 04:38:10;;;;;;;2.90;1.33;;;11.40;48.00;;;;;;5057291;28;20531;-46
2023/10/29 04:40:36;;;;;;;1.87;1.10;;;11.40;41.20;;;;;;5057208;28;20189;-46
2023/10/29 04:43:02;;;;;;;1.97;1.27;;;11.40;47.00;;;;;;5055999;28;20258;-46
2023/10/29 04:45:28;;;;;;;3.70;1.33;;;11.40;74.60;;;;;;5056584;28;20197;-46
2023/10/29 04:47:53;;;;;;;1.80;1.27;;;11.30;99.90;;;;;;5056121;28;20468;-46
2023/10/29 04:50:19;;;;;;;1.73;1.13;;;11.30;99.90;;;;;;5056252;28;20214;-46
2023/10/29 04:52:45;;;;;;;1.60;1.00;;;11.30;99.90;;;;;;5056541;28;20193;-46
2023/10/29 04:55:10;;;;;;;3.77;1.20;;;11.30;99.90;;;;;;5055654;28;20220;-46
2023/10/29 04:57:36;;;;;;;3.60;1.20;;;11.30;99.90;;;;;;5056678;28;20174;-46
2023/10/29 05:00:04;;;;;;;2.17;1.30;;;11.30;99.90;;;;;;5056941;28;20208;-46
2023/10/29 05:02:30;;;;;;;2.70;2.00;;;11.20;1.00;;;;;;5055758;28;20230;-46
2023/10/29 05:04:55;;;;;;;2.27;1.70;;;11.20;1.00;;;;;;5055979;28;20890;-46
2023/10/29 05:07:21;;;;;;;3.20;1.50;;;11.10;1.00;;;;;;5056159;28;20193;-47
2023/10/29 05:09:47;;;;;;;2.60;1.30;;;11.10;1.00;;;;;;5055797;28;20178;-45
2023/10/29 05:12:12;;;;;;;1.70;1.20;;;11.10;1.00;;;;;;5056184;28;20216;-46
2023/10/29 05:14:38;;;;;;;2.40;1.43;;;11.00;1.00;;;;;;5055290;28;20263;-46
2023/10/29 05:17:04;;;;;;;2.60;1.13;;;11.00;37.80;;;;;;5054773;28;20464;-46
2023/10/29 05:19:30;;;;;;;2.90;1.50;;;11.00;99.90;;;;;;5054132;28;20190;-46
2023/10/29 05:21:55;;;;;;;2.13;1.27;;;11.00;99.90;;;;;;5053691;28;20423;-46
2023/10/29 05:24:21;;;;;;;2.00;1.47;;;11.00;99.90;;;;;;5053409;28;20623;-46
2023/10/29 05:26:47;;;;;;;2.10;1.20;;;11.00;99.90;;;;;;5053364;28;20556;-46
2023/10/29 05:29:12;;;;;;;2.83;1.63;;;11.00;99.90;;;;;;5054481;28;20406;-46
2023/10/29 05:31:38;;;;;;;2.50;1.70;;;11.00;1.00;;;;;;5054133;28;20472;-46
2023/10/29 05:34:04;;;;;;;2.87;1.50;;;11.00;1.00;;;;;;5055215;28;20240;-46
2023/10/29 05:36:30;;;;;;;2.00;1.60;;;11.00;1.00;;;;;;5054924;28;20280;-46
2023/10/29 05:38:55;;;;;;;3.20;1.70;;;11.00;20.90;;;;;;5054835;28;20194;-46
2023/10/29 05:41:21;;;;;;;2.30;1.50;;;11.00;99.90;;;;;;5055558;28;20189;-46
2023/10/29 05:43:47;;;;;;;2.97;1.80;;;11.00;99.90;;;;;;5054709;28;20197;-46
2023/10/29 05:46:13;;;;;;;2.23;1.67;;;11.00;99.90;;;;;;5052541;28;20726;-46
2023/10/29 05:48:39;;;;;;;2.07;1.43;;;11.00;1.00;;;;;;5052535;28;20186;-46
2023/10/29 05:51:05;;;;;;;2.13;1.50;;;11.00;1.00;;;;;;5052367;28;20495;-46
2023/10/29 05:53:30;;;;;;;1.90;1.60;;;11.00;1.00;;;;;;5053480;28;20223;-46
2023/10/29 05:55:56;;;;;;;1.90;1.60;;;11.10;1.00;;;;;;5035676;28;20219;-46
2023/10/29 05:58:24;;;;;;;2.70;1.40;;;11.10;48.50;;;;;;5053689;28;20182;-46
2023/10/29 06:00:50;;;;;;;2.90;1.27;;;11.10;99.90;;;;;;5038586;28;20201;-46
2023/10/29 06:03:16;;;;;;;2.10;1.37;;;11.10;99.90;;;;;;5055855;28;20432;-46
2023/10/29 06:05:42;;;;;;;2.17;1.40;;;11.10;99.90;;;;;;5055763;28;20447;-46
2023/10/29 06:08:08;;;;;;;2.00;1.50;;;11.10;99.90;;;;;;5054098;28;20506;-46
2023/10/29 06:10:34;;;;;;;3.13;1.47;;;11.10;35.20;;;;;;5038274;28;20217;-46
2023/10/29 06:12:59;;;;;;;2.70;1.40;;;11.10;1.00;;;;;;5056097;28;20486;-46
2023/10/29 06:15:26;;;;;;;3.03;1.70;;;11.20;1.00;;;;;;5054545;28;20218;-45
2023/10/29 06:17:53;;;;;;;2.00;1.53;;;11.20;1.00;;;;;;5037116;28;21067;-46
2023/10/29 06:20:21;;;;;;;2.90;1.60;;;11.20;99.90;;;;;;5053701;28;20440;-46
2023/10/29 06:22:47;;;;;;;1.90;1.70;;;11.30;99.90;;;;;;5053956;28;20755;-47
2023/10/29 06:25:14;;;;;;;1.83;1.50;;;11.40;1.00;;;;;;5053936;28;20432;-46
2023/10/29 06:27:39;;;;;;;2.00;1.67;;;11.40;1.00;;;;;;5052888;28;20507;-46
2023/10/29 06:30:06;;;;;;;2.40;1.27;;;11.50;1.00;;;;;;5052634;28;20578;-46
2023/10/29 06:32:32;;;;;;;2.80;1.83;;;11.60;99.90;;;;;;5054108;28;20596;-46
2023/10/29 06:34:58;;;;;;;1.90;1.40;;;11.80;99.90;;;;;;5053257;28;20435;-46
2023/10/29 06:37:23;;;;;;;2.23;1.30;;;11.90;99.90;;;;;;5052608;28;20248;-46
2023/10/29 06:39:49;;;;;;;1.80;1.30;;;11.90;16.20;;;;;;5054841;28;20521;-46
2023/10/29 06:42:15;;;;;;;3.17;1.57;;;12.00;1.00;;;;;;5053532;28;20260;-47
2023/10/29 06:44:40;;;;;;;2.00;1.50;;;12.00;1.00;;;;;;5056853;28;20209;-46
2023/10/29 06:47:07;;;;;;;2.00;1.50;;;12.00;1.00;;;;;;5058417;28;20186;-46
2023/10/29 06:49:33;;;;;;;2.53;1.40;;;12.00;1.00;;;;;;5057127;28;20194;-46
2023/10/29 06:51:58;;;;;;;1.70;1.50;;;12.10;1.00;;;;;;5057081;28;20548;-46
2023/10/29 06:54:24;;;;;;;1.67;1.20;;;12.10;1.00;;;;;;5057537;28;20185;-46
2023/10/29 06:56:50;;;;;;;2.10;1.80;;;12.10;1.00;;;;;;5056579;28;20186;-46
2023/10/29 06:59:16;;;;;;;1.50;1.30;;;12.20;1.00;;;;;;5056725;28;20487;-46
2023/10/29 07:01:42;;;;;;;4.40;1.77;;;12.20;1.00;;;;;;5057127;28;20523;-46
2023/10/29 07:04:08;;;;;;;1.43;1.17;;;12.30;1.00;;;;;;5057478;28;20178;-46
2023/10/29 07:06:34;;;;;;;2.70;1.60;;;12.30;1.00;;;;;;5058579;28;20698;-46
2023/10/29 07:09:00;;;;;;;1.60;1.47;;;12.40;1.00;;;;;;5057049;28;20447;-46
2023/10/29 07:11:29;;;;;;;2.33;2.00;;;12.40;1.00;;;;;;5056834;28;20221;-46
2023/10/29 07:13:55;;;;;;;3.03;1.53;;;12.50;99.90;;;;;;5056189;28;20523;-46
2023/10/29 07:16:20;;;;;;;5.50;1.57;;;12.60;99.90;;;;;;5056905;28;21000;-46
2023/10/29 07:18:46;;;;;;;3.23;2.00;;;12.60;99.90;;;;;;5058361;28;20900;-46
2023/10/29 07:21:13;;;;;;;2.43;1.33;;;12.70;99.90;;;;;;5057531;28;20197;-46
2023/10/29 07:23:39;;;;;;;2.77;1.80;;;12.80;99.90;;;;;;5055648;28;20246;-46
2023/10/29 07:26:04;;;;;;;3.10;1.73;;;12.90;99.90;;;;;;5057104;28;20424;-46
2023/10/29 07:28:30;;;;;;;2.93;2.03;;;13.00;99.90;;;;;;5057485;28;20190;-46
2023/10/29 07:30:56;;;;;;;2.60;2.10;;;13.20;97.70;;;;;;5057145;28;20599;-46
2023/10/29 07:33:21;;;;;;;1.80;1.53;;;13.30;29.20;;;;;;5057200;28;20189;-46
2023/10/29 07:35:47;;;;;;;4.27;1.40;;;13.50;1.00;;;;;;5056126;28;20194;-46
2023/10/29 07:38:13;;;;;;;2.23;1.40;;;13.60;1.00;;;;;;5057506;28;20272;-46
2023/10/29 07:40:39;;;;;;;3.80;2.10;;;13.70;1.00;;;;;;5057485;28;20505;-46
2023/10/29 07:43:05;;;;;;;1.63;1.20;;;13.80;1.00;;;;;;5057199;28;20520;-46
2023/10/29 07:45:31;;;;;;;2.40;1.27;;;13.80;1.00;;;;;;5057180;28;20602;-46
2023/10/29 07:47:57;;;;;;;2.30;1.30;;;13.90;1.00;;;;;;5056553;28;20189;-46
2023/10/29 07:50:22;;;;;;;2.17;1.40;;;13.90;99.90;;;;;;5056046;28;20722;-46
2023/10/29 07:52:48;;;;;;;3.73;1.70;;;13.90;99.90;;;;;;5057116;28;20281;-46
2023/10/29 07:55:14;;;;;;;2.30;1.53;;;14.00;99.90;;;;;;5054888;28;20185;-46
2023/10/29 07:57:39;;;;;;;1.77;1.20;;;14.20;99.90;;;;;;5056569;28;20181;-46
2023/10/29 08:00:15;;;;;;;2.07;1.40;;;14.40;99.90;;;;;;5037720;28;20204;-46
2023/10/29 08:02:42;;;;;;;2.67;2.10;;;14.60;99.90;;;;;;5055196;28;20487;-46
2023/10/29 08:05:10;;;;;;;2.70;1.60;;;14.70;99.90;;;;;;5055548;28;20432;-46
2023/10/29 08:07:36;;;;;;;6.83;2.33;;;14.80;99.90;;;;;;5055395;28;20438;-46
2023/10/29 08:10:02;;;;;;;1.90;1.57;;;15.00;99.90;;;;;;5056130;28;20526;-46
2023/10/29 08:12:29;;;;;;;3.87;1.77;;;15.20;99.90;;;;;;5054666;28;20417;-46
2023/10/29 08:14:55;;;;;;;2.30;1.70;;;15.50;99.90;;;;;;5054885;28;20474;-46
2023/10/29 08:17:21;;;;;;;3.47;1.87;;;15.60;99.90;;;;;;5054738;28;20432;-46
2023/10/29 08:19:47;;;;;;;3.00;2.00;;;15.80;99.90;;;;;;5053742;28;20253;-46
2023/10/29 08:22:13;;;;;;;3.13;2.07;;;15.80;99.90;;;;;;5054360;28;20412;-46
2023/10/29 08:24:40;;;;;;;4.47;2.00;;;15.90;99.90;;;;;;5053589;28;20417;-44
2023/10/29 08:27:08;;;;;;;2.43;1.97;;;16.00;99.90;;;;;;5053864;28;20873;-46
2023/10/29 08:29:35;;;;;;;2.43;1.67;;;16.00;99.90;;;;;;5055228;28;20723;-46
2023/10/29 08:32:02;;;;;;;2.40;1.80;;;16.10;98.90;;;;;;5036232;28;20484;-46
2023/10/29 08:34:27;;;;;;;5.03;2.07;;;16.10;98.10;;;;;;5052633;28;20692;-46
2023/10/29 08:36:54;;;;;;;3.70;1.70;;;16.30;93.80;;;;;;5052408;28;20419;-46
2023/10/29 08:39:21;;;;;;;2.23;1.63;;;16.50;86.90;;;;;;5053220;28;20178;-46
2023/10/29 08:41:48;;;;;;;2.53;1.40;;;16.70;99.90;;;;;;5053187;28;20832;-46
2023/10/29 08:44:14;;;;;;;13.73;1.67;;;17.10;1.00;;;;;;5052847;28;20432;-47
2023/10/29 08:46:41;;;;;;;6.20;1.67;;;17.80;1.00;;;;;;5053991;28;20428;-47
2023/10/29 08:49:07;;;;;;;10.30;2.13;;;18.30;1.00;;;;;;5053707;28;20478;-47
2023/10/29 08:51:34;;;;;;;4.37;1.70;;;18.80;1.00;;;;;;5053390;28;20499;-47
2023/10/29 08:54:02;;;;;;;2.53;1.40;;;19.20;1.00;;;;;;5035470;28;20424;-47
2023/10/29 08:56:29;;;;;;;7.80;1.70;;;19.50;99.90;;;;;;5053822;28;20190;-47
2023/10/29 08:58:55;;;;;;;12.53;2.10;;;19.70;99.90;;;;;;5053782;28;20872;-52
2023/10/29 09:01:21;;;;;;;3.90;2.00;;;19.90;1.00;;;;;;5054035;28;20432;-46
2023/10/29 09:03:46;;;;;;;5.47;2.80;;;20.00;99.90;;;;;;5055876;28;20170;-45
2023/10/29 09:06:12;;;;;;;3.70;2.23;;;19.90;99.90;;;;;;5054515;28;20190;-46
2023/10/29 09:08:40;;;;;;;3.30;2.00;;;19.60;93.10;;;;;;5054022;28;20328;-46
2023/10/29 09:11:06;;;;;;;3.70;2.00;;;19.40;1.00;;;;;;5036766;28;20470;-46
2023/10/29 09:13:32;;;;;;;3.60;2.73;;;19.30;1.00;;;;;;5054692;28;20507;-46
2023/10/29 09:15:59;;;;;;;2.83;2.40;;;19.30;1.00;;;;;;5053211;28;20178;-46
2023/10/29 09:18:25;;;;;;;3.17;1.97;;;19.30;1.00;;;;;;5054671;28;20427;-46
2023/10/29 09:20:51;;;;;;;4.40;1.77;;;19.50;1.00;;;;;;5037594;28;20467;-46
2023/10/29 09:23:17;;;;;;;3.80;1.93;;;19.50;1.00;;;;;;5035664;28;20490;-46
2023/10/29 09:25:44;;;;;;;2.23;1.60;;;19.50;1.00;;;;;;5036672;28;20519;-46
2023/10/29 09:28:11;;;;;;;2.30;1.90;;;19.30;1.00;;;;;;5036601;28;20220;-46
2023/10/29 09:30:38;;;;;;;3.37;2.27;;;19.10;1.00;;;;;;5054417;28;20766;-46
2023/10/29 09:33:05;;;;;;;2.00;1.50;;;18.90;1.00;;;;;;5053635;28;20473;-46
2023/10/29 09:35:30;;;;;;;2.70;1.60;;;18.70;1.00;;;;;;5053976;28;20424;-46
2023/10/29 09:37:56;;;;;;;4.13;1.73;;;18.40;1.00;;;;;;5054710;28;20408;-46
2023/10/29 09:40:23;;;;;;;2.80;1.77;;;18.30;1.00;;;;;;5053672;28;20430;-46
2023/10/29 09:42:53;;;;;;;5.00;1.83;;;18.30;1.00;;;;;;5050999;28;20405;-46
2023/10/29 09:45:23;;;;;;;2.23;1.40;;;18.40;1.00;;;;;;5052070;28;20420;-46
2023/10/29 09:47:50;;;;;;;2.47;1.77;;;18.60;1.00;;;;;;5051967;28;20439;-46
2023/10/29 09:50:16;;;;;;;3.20;1.80;;;18.70;1.00;;;;;;5052828;28;20738;-46
2023/10/29 09:52:42;;;;;;;2.33;1.73;;;18.80;1.00;;;;;;5037030;28;20436;-46
2023/10/29 09:55:09;;;;;;;2.27;1.30;;;18.90;1.00;;;;;;5019711;28;20221;-46
2023/10/29 09:57:34;;;;;;;2.83;1.57;;;18.80;1.00;;;;;;5050901;28;20416;-46
2023/10/29 10:00:00;;;;;;;1.93;1.40;;;18.80;1.00;;;;;;5052381;28;20424;-46
2023/10/29 10:02:26;;;;;;;3.23;1.83;;;18.80;1.00;;;;;;5034516;28;20200;-46
2023/10/29 10:04:52;;;;;;;1.97;1.53;;;18.80;1.00;;;;;;5049669;28;20455;-46
2023/10/29 10:07:18;;;;;;;2.73;1.77;;;18.80;1.00;;;;;;5033506;28;20564;-46
2023/10/29 10:09:54;;;;;;;3.10;2.30;;;18.80;1.00;;;;;;5033987;28;20407;-46
2023/10/29 10:12:20;;;;;;;2.33;1.77;;;18.80;1.00;;;;;;5049603;28;20488;-46
2023/10/29 10:14:47;;;;;;;3.57;1.70;;;18.80;1.00;;;;;;5033998;28;21018;-46
2023/10/29 10:17:13;;;;;;;3.37;1.80;;;18.80;1.00;;;;;;5052919;28;20424;-46
2023/10/29 10:19:41;;;;;;;3.00;1.80;;;18.90;1.00;;;;;;5054728;28;20706;-46
2023/10/29 10:22:07;;;;;;;7.53;2.33;;;18.80;1.00;;;;;;5054058;28;20263;-46
2023/10/29 10:24:40;;;;;;;3.50;1.80;;;18.80;1.00;;;;;;5056021;28;20424;-46
2023/10/29 10:27:07;;;;;;;3.27;1.63;;;18.90;1.00;;;;;;5056320;28;20420;-46
2023/10/29 10:29:33;;;;;;;2.57;1.97;;;19.10;1.00;;;;;;5054538;28;20428;-46
2023/10/29 10:32:05;;;;;;;2.33;1.50;;;19.20;1.00;;;;;;5056713;28;20553;-46
2023/10/29 10:34:33;;;;;;;2.00;1.70;;;19.20;1.00;;;;;;5057083;28;20427;-46
2023/10/29 10:37:04;;;;;;;2.30;1.70;;;19.30;1.00;;;;;;5056774;28;20404;-46
2023/10/29 10:39:33;;;;;;;1.87;1.60;;;19.50;1.00;;;;;;5055352;28;20482;-47
2023/10/29 10:42:02;;;;;;;2.00;1.47;;;19.60;1.00;;;;;;5056266;28;20503;-46
2023/10/29 10:44:29;;;;;;;2.63;1.50;;;19.60;1.00;;;;;;5057013;28;20436;-46
2023/10/29 10:46:57;;;;;;;3.87;1.60;;;19.70;1.00;;;;;;5059202;28;20431;-46
2023/10/29 10:49:23;;;;;;;2.53;1.70;;;19.70;1.00;;;;;;5056010;28;20443;-46
2023/10/29 10:51:55;;;;;;;2.37;1.30;;;19.80;1.00;;;;;;5055571;28;20866;-46
2023/10/29 10:54:24;;;;;;;1.80;1.30;;;19.80;1.00;;;;;;5038715;28;20455;-46
2023/10/29 10:56:52;;;;;;;1.93;1.33;;;19.90;1.00;;;;;;5039392;28;20420;-46
2023/10/29 10:59:18;;;;;;;2.43;1.30;;;19.90;1.00;;;;;;5040689;28;20686;-46
2023/10/29 11:01:44;;;;;;;1.63;1.00;;;19.90;1.00;;;;;;5039348;28;20428;-47
2023/10/29 11:04:10;;;;;;;3.10;1.30;;;19.80;1.00;;;;;;5021636;28;20943;-52
2023/10/29 11:06:37;;;;;;;2.40;1.20;;;19.80;1.00;;;;;;5036578;28;20799;-46
2023/10/29 11:09:12;;;;;;;2.27;1.43;;;19.70;1.00;;;;;;5020023;28;20197;-47
2023/10/29 11:11:56;;;;;;;1.40;1.10;;;19.60;1.00;;;;;;5053992;28;20482;-46
2023/10/29 11:14:24;;;;;;;2.10;1.20;;;19.50;1.00;;;;;;5054036;28;20424;-47
2023/10/29 11:16:51;;;;;;;3.20;1.20;;;19.50;1.00;;;;;;5055145;28;20501;-47
2023/10/29 11:19:47;;;;;;;2.57;1.20;;;19.40;1.00;;;;;;5036864;28;20783;-46
2023/10/29 11:22:21;;;;;;;1.90;1.33;;;19.30;1.00;;;;;;5030149;28;20803;-46
2023/10/29 11:25:08;;;;;;;1.87;1.20;;;19.40;1.00;;;;;;5053904;28;20412;-45
2023/10/29 11:27:37;;;;;;;1.50;1.10;;;19.40;1.00;;;;;;5053391;28;20804;-45
2023/10/29 11:30:17;;;;;;;4.70;1.37;;;19.40;1.00;;;;;;5037379;28;20420;-45
2023/10/29 11:32:44;;;;;;;3.10;1.23;;;19.50;1.00;;;;;;5055296;28;20420;-45
2023/10/29 11:35:19;;;;;;;4.00;1.67;;;19.80;1.00;;;;;;5055671;28;20428;-45
2023/10/29 11:37:45;;;;;;;1.60;0.90;;;20.40;1.00;;;;;;5053429;28;20532;-45
2023/10/29 11:40:23;;;;;;;1.27;0.90;;;21.40;1.00;;;;;;5054201;28;20428;-45
2023/10/29 11:43:15;;;;;;;1.60;1.00;;;22.10;1.00;;;;;;5055641;28;20593;-45
2023/10/29 11:45:41;;;;;;;2.90;0.90;;;22.80;1.00;;;;;;5052568;28;20703;-45
2023/10/29 11:48:10;;;;;;;3.13;2.03;;;23.20;1.00;;;;;;5055323;28;20439;-45
2023/10/29 11:50:42;;;;;;;2.20;0.90;;;23.30;1.00;;;;;;5054828;28;20541;-45
2023/10/29 11:53:28;;;;;;;1.67;0.90;;;23.10;1.00;;;;;;5036722;28;20475;-45
2023/10/29 11:55:59;;;;;;;2.33;1.20;;;22.70;1.00;;;;;;5054863;28;20447;-45
2023/10/29 11:58:26;;;;;;;1.40;1.10;;;22.50;1.00;;;;;;5052529;28;20422;-45
2023/10/29 12:00:53;;;;;;;1.30;1.20;;;22.40;1.00;;;;;;5053111;28;20424;-45
2023/10/29 12:03:22;;;;;;;1.70;1.00;;;23.00;1.00;;;;;;5052694;28;20436;-45
2023/10/29 12:05:53;;;;;;;1.70;1.10;;;25.00;1.00;;;;;;5052813;28;20515;-45
2023/10/29 12:08:19;;;;;;;2.13;1.00;;;27.10;1.00;;;;;;5050536;28;20439;-46
2023/10/29 12:10:50;;;;;;;1.73;0.90;;;28.00;1.00;;;;;;5050422;28;20486;-46
2023/10/29 12:13:18;;;;;;;4.50;1.23;;;29.40;1.00;;;;;;5050753;28;20482;-45
2023/10/29 12:16:03;;;;;;;1.83;1.27;;;30.80;1.00;;;;;;5050761;28;20467;-46
2023/10/29 12:18:29;;;;;;;2.77;1.30;;;32.40;1.00;;;;;;5052414;28;20424;-46
2023/10/29 12:21:09;;;;;;;1.70;0.90;;;33.20;1.00;;;;;;5052563;28;20850;-46
2023/10/29 12:23:35;;;;;;;1.50;1.10;;;33.20;1.00;;;;;;5050756;28;20390;-46
2023/10/29 12:26:06;;;;;;;5.07;1.40;;;32.50;1.00;;;;;;5051130;28;20447;-46
2023/10/29 12:28:36;;;;;;;1.40;0.93;;;31.90;1.00;;;;;;5031635;28;20403;-46
2023/10/29 12:31:03;;;;;;;1.60;1.00;;;31.60;1.00;;;;;;5052066;28;20439;-46
2023/10/29 12:33:33;;;;;;;2.90;1.10;;;31.90;1.00;;;;;;5050740;28;20806;-46
2023/10/29 12:35:59;;;;;;;1.80;1.13;;;31.70;1.00;;;;;;5051826;28;20407;-46
2023/10/29 12:38:26;;;;;;;1.57;1.20;;;30.90;1.00;;;;;;5035933;28;20403;-46
2023/10/29 12:41:04;;;;;;;2.80;1.40;;;30.10;1.00;;;;;;5052129;28;20399;-46
2023/10/29 12:43:43;;;;;;;1.60;0.83;;;29.00;1.00;;;;;;5052087;28;20496;-46
2023/10/29 12:46:14;;;;;;;2.60;0.93;;;27.90;1.00;;;;;;5053534;28;20845;-46
2023/10/29 12:48:59;;;;;;;1.60;1.20;;;27.10;1.00;;;;;;5054753;28;20395;-46
2023/10/29 12:51:54;;;;;;;3.00;1.40;;;26.20;1.00;;;;;;5053758;28;20514;-46